Time;durP1;ratioP1;P1;durP2;ratioP2;P2;SDS_P1;SDS_P2;PMS_P1;PMS_P2;Temp;Humidity;BMP_temperature;BMP_pressure;BME280_temperature;BME280_humidity;BME280_pressure;Samples;Min_cycle;Max_cycle;Signal;HPM_P1;HPM_P2
2022/04/28 00:01:07;;;;;;;13.93;8.80;;;;;;;6.42;100.00;100515.16;5034123;28;20504;-51
2022/04/28 00:03:52;;;;;;;15.13;8.88;;;;;;;6.36;100.00;100518.59;5034057;28;20432;-51
2022/04/28 00:06:36;;;;;;;12.90;8.77;;;;;;;6.29;100.00;100511.66;5030112;28;20077;-52
2022/04/28 00:09:20;;;;;;;13.13;8.70;;;;;;;6.26;100.00;100509.03;5033605;28;20045;-53
2022/04/28 00:12:05;;;;;;;13.80;8.48;;;;;;;6.23;100.00;100514.22;5031995;28;20045;-51
2022/04/28 00:14:50;;;;;;;13.88;8.30;;;;;;;6.18;100.00;100522.03;5033364;28;20057;-51
2022/04/28 00:17:34;;;;;;;13.45;8.77;;;;;;;6.16;100.00;100515.06;5032514;28;20053;-52
2022/04/28 00:20:19;;;;;;;14.18;8.50;;;;;;;6.15;100.00;100510.75;5032669;28;20492;-52
2022/04/28 00:23:03;;;;;;;16.20;8.88;;;;;;;6.17;100.00;100516.81;5029650;28;20045;-52
2022/04/28 00:25:48;;;;;;;15.07;9.15;;;;;;;6.13;100.00;100515.91;5039378;28;20042;-51
2022/04/28 00:28:32;;;;;;;13.23;9.45;;;;;;;6.17;100.00;100515.06;5029840;28;20514;-50
2022/04/28 00:31:16;;;;;;;14.57;9.07;;;;;;;6.21;100.00;100513.38;5029442;28;20068;-51
2022/04/28 00:34:00;;;;;;;13.80;9.18;;;;;;;6.23;100.00;100502.06;5028129;28;20184;-51
2022/04/28 00:36:45;;;;;;;15.27;10.10;;;;;;;6.27;100.00;100518.56;5026895;28;20480;-52
2022/04/28 00:39:29;;;;;;;19.38;10.57;;;;;;;6.29;100.00;100515.13;5026415;28;20060;-52
2022/04/28 00:42:15;;;;;;;18.30;9.43;;;;;;;6.26;100.00;100516.84;5026751;28;20040;-51
2022/04/28 00:45:00;;;;;;;16.77;10.07;;;;;;;6.41;100.00;100511.69;5029403;28;20080;-52
2022/04/28 00:50:48;;;;;;;17.05;8.95;;;;;;;6.50;100.00;100522.13;5026371;28;20041;-51
2022/04/28 00:53:36;;;;;;;15.02;9.23;;;;;;;6.51;100.00;100523.00;5045442;28;20057;-51
2022/04/28 00:56:21;;;;;;;17.63;9.63;;;;;;;6.60;100.00;100520.44;5046309;28;20048;-51
2022/04/28 00:59:06;;;;;;;17.90;8.88;;;;;;;6.74;100.00;100515.25;5025083;28;20052;-52
2022/04/28 01:01:51;;;;;;;15.00;9.07;;;;;;;6.85;100.00;100517.84;5031695;28;20048;-52
2022/04/28 01:04:37;;;;;;;20.05;11.18;;;;;;;6.90;100.00;100513.53;5022666;28;20057;-51
2022/04/28 01:07:22;;;;;;;23.00;10.57;;;;;;;6.95;100.00;100512.66;5023829;28;20054;-51
2022/04/28 01:10:08;;;;;;;19.88;10.60;;;;;;;6.99;100.00;100509.19;5022546;28;20050;-52
2022/04/28 01:12:53;;;;;;;20.67;10.32;;;;;;;7.05;100.00;100510.91;5035411;28;20046;-52
2022/04/28 01:15:47;;;;;;;23.42;11.30;;;;;;;7.03;100.00;100516.13;5035376;28;20384;-51
2022/04/28 01:18:32;;;;;;;20.95;10.05;;;;;;;7.09;100.00;100511.81;5035114;28;20188;-52
2022/04/28 01:21:17;;;;;;;23.42;10.63;;;;;;;7.07;100.00;100511.81;5036397;28;20365;-51
2022/04/28 01:24:03;;;;;;;20.20;10.35;;;;;;;7.11;100.00;100502.25;5022156;28;20057;-52
2022/04/28 01:26:51;;;;;;;14.07;8.93;;;;;;;7.18;100.00;100511.78;5022089;28;20053;-51
2022/04/28 01:29:37;;;;;;;19.95;10.32;;;;;;;7.15;100.00;100509.19;5043910;28;20088;-52
2022/04/28 01:32:22;;;;;;;14.88;9.65;;;;;;;7.05;100.00;100513.53;5036867;28;20200;-51
2022/04/28 01:35:07;;;;;;;17.05;9.48;;;;;;;7.00;100.00;100510.94;5029850;28;20108;-51
2022/04/28 01:37:53;;;;;;;11.88;7.55;;;;;;;6.97;100.00;100510.06;5032847;28;20552;-51
2022/04/28 01:40:38;;;;;;;11.20;6.80;;;;;;;7.06;100.00;100510.06;5029412;28;20052;-50
2022/04/28 01:43:23;;;;;;;12.35;7.07;;;;;;;7.13;100.00;100514.41;5027190;28;20049;-51
2022/04/28 01:46:08;;;;;;;10.40;6.38;;;;;;;7.17;100.00;100513.53;5027983;28;20033;-52
2022/04/28 01:49:12;;;;;;;10.73;6.85;;;;;;;7.13;100.00;100505.72;5026453;28;20404;-52
2022/04/28 01:55:30;;;;;;;8.75;6.03;;;;;;;7.15;100.00;100498.75;5011455;28;20061;-52
2022/04/28 01:58:37;;;;;;;13.25;6.25;;;;;;;7.13;100.00;100505.72;5027653;28;20049;-51
2022/04/28 02:01:32;;;;;;;8.82;6.30;;;;;;;7.04;100.00;100511.78;5026882;28;20084;-51
2022/04/28 02:04:17;;;;;;;9.23;5.85;;;;;;;7.00;100.00;100503.13;5028573;28;20139;-52
2022/04/28 02:07:02;;;;;;;8.10;6.20;;;;;;;7.02;100.00;100514.41;5042606;28;20049;-51
2022/04/28 02:09:46;;;;;;;8.80;6.75;;;;;;;7.02;100.00;100516.16;5029789;28;20051;-51
2022/04/28 02:12:32;;;;;;;9.65;6.57;;;;;;;6.99;100.00;100513.56;5025625;28;20049;-52
2022/04/28 02:15:36;;;;;;;9.18;6.68;;;;;;;6.97;100.00;100510.06;5027417;28;20053;-52
2022/04/28 02:18:40;;;;;;;9.40;6.18;;;;;;;6.95;100.00;100510.03;5027076;28;20056;-52
2022/04/28 02:21:24;;;;;;;11.07;6.95;;;;;;;6.95;100.00;100510.03;5026951;28;20974;-52
2022/04/28 02:24:09;;;;;;;7.75;5.07;;;;;;;6.95;100.00;100502.22;5039206;28;20480;-52
2022/04/28 02:26:53;;;;;;;10.18;6.20;;;;;;;6.92;100.00;100504.88;5026753;28;20041;-51
2022/04/28 02:29:38;;;;;;;9.93;5.47;;;;;;;6.91;100.00;100497.91;5025716;28;20049;-52
2022/04/28 02:32:23;;;;;;;9.63;6.55;;;;;;;6.87;100.00;100490.97;5039354;28;20148;-52
2022/04/28 02:35:08;;;;;;;8.57;6.00;;;;;;;6.87;100.00;100493.56;5028797;28;20038;-52
2022/04/28 02:37:54;;;;;;;8.30;6.25;;;;;;;6.87;100.00;100492.69;5038586;28;20037;-52
2022/04/28 02:40:39;;;;;;;8.35;5.35;;;;;;;6.86;100.00;100489.22;5024953;28;20057;-52
2022/04/28 02:43:25;;;;;;;9.80;6.20;;;;;;;6.77;100.00;100484.88;5033371;28;20676;-52
2022/04/28 02:46:23;;;;;;;12.85;7.38;;;;;;;6.74;100.00;100489.22;5024383;28;20064;-51
2022/04/28 02:49:25;;;;;;;9.50;6.35;;;;;;;6.75;100.00;100490.94;5037988;28;20045;-52
2022/04/28 02:52:13;;;;;;;9.18;6.50;;;;;;;6.74;100.00;100492.69;5023773;28;20111;-51
2022/04/28 02:54:58;;;;;;;9.00;6.30;;;;;;;6.73;100.00;100495.28;5038365;28;20053;-51
2022/04/28 02:57:43;;;;;;;10.82;5.97;;;;;;;6.71;100.00;100495.28;5024170;28;20042;-51
2022/04/28 03:00:29;;;;;;;9.48;5.75;;;;;;;6.70;100.00;100495.28;5037738;28;20145;-51
2022/04/28 03:03:19;;;;;;;8.68;5.72;;;;;;;6.66;100.00;100501.31;5024763;28;20053;-53
2022/04/28 03:12:11;;;;;;;;;;;;;;;6.40;100.00;100504.75;5034786;28;20461;-50
2022/04/28 03:15:05;;;;;;;9.82;6.22;;;;;;;6.43;100.00;100504.75;5025757;28;19925;-52
2022/04/28 03:17:50;;;;;;;13.05;8.30;;;;;;;6.42;100.00;100512.56;5027131;28;20065;-52
2022/04/28 03:20:36;;;;;;;12.90;7.13;;;;;;;6.27;100.00;100513.38;5040451;28;20052;-51
2022/04/28 03:23:23;;;;;;;11.25;6.53;;;;;;;6.18;100.00;100510.75;5027164;28;20052;-51
2022/04/28 03:26:08;;;;;;;9.15;5.80;;;;;;;6.17;100.00;100509.00;5035764;28;20339;-51
2022/04/28 03:28:52;;;;;;;9.02;5.47;;;;;;;6.16;100.00;100515.06;5029543;28;20092;-51
2022/04/28 03:31:37;;;;;;;11.45;5.72;;;;;;;6.15;100.00;100511.59;5024816;28;20115;-52
2022/04/28 03:34:27;;;;;;;10.73;6.15;;;;;;;6.08;100.00;100515.91;5026249;28;20053;-52
2022/04/28 03:37:12;;;;;;;12.60;7.13;;;;;;;6.08;100.00;100512.44;5026202;28;20064;-51
2022/04/28 03:40:00;;;;;;;11.38;6.38;;;;;;;6.03;100.00;100516.75;5028087;28;20057;-51
2022/04/28 03:42:46;;;;;;;11.52;6.88;;;;;;;5.97;100.00;100514.09;5034983;28;20053;-50
2022/04/28 03:45:33;;;;;;;11.90;6.25;;;;;;;5.86;100.00;100506.22;5028420;28;20053;-51
2022/04/28 03:48:19;;;;;;;10.45;6.43;;;;;;;5.86;100.00;100519.22;5041932;28;20502;-51
2022/04/28 03:51:04;;;;;;;10.82;6.82;;;;;;;5.80;100.00;100521.78;5030777;28;20042;-51
2022/04/28 03:53:49;;;;;;;11.25;6.97;;;;;;;5.78;100.00;100520.91;5025410;28;20049;-50
2022/04/28 03:56:34;;;;;;;11.85;6.95;;;;;;;5.79;100.00;100530.47;5024810;28;20053;-51
2022/04/28 03:59:25;;;;;;;14.23;8.10;;;;;;;5.76;100.00;100526.13;5024582;28;20045;-52
2022/04/28 04:02:16;;;;;;;12.50;8.15;;;;;;;5.76;100.00;100527.84;5030694;28;20099;-52
2022/04/28 04:05:01;;;;;;;19.40;10.02;;;;;;;5.76;100.00;100520.91;5032408;28;20065;-52
2022/04/28 04:07:46;;;;;;;17.48;11.95;;;;;;;5.76;100.00;100533.91;5047001;28;20120;-53
2022/04/28 04:10:41;;;;;;;18.23;10.95;;;;;;;5.67;100.00;100540.78;5041897;28;20053;-51
2022/04/28 04:13:27;;;;;;;105.63;41.13;;;;;;;5.71;100.00;100539.94;5024775;28;20073;-52
2022/04/28 04:16:13;;;;;;;160.88;83.45;;;;;;;5.77;100.00;100542.56;5025014;28;20064;-52
2022/04/28 04:19:11;;;;;;;104.07;56.78;;;;;;;5.83;100.00;100538.28;5038923;28;20049;-52
2022/04/28 04:22:01;;;;;;;60.88;34.05;;;;;;;5.84;100.00;100545.22;5023461;28;20045;-51
2022/04/28 04:24:45;;;;;;;50.55;27.95;;;;;;;5.95;100.00;100553.13;5042072;28;20076;-51
2022/04/28 04:27:34;;;;;;;78.43;36.10;;;;;;;6.22;100.00;100546.31;5047282;28;20649;-52
2022/04/28 04:33:39;;;;;;;35.33;19.08;;;;;;;7.19;100.00;100553.50;5045773;28;20045;-53
2022/04/28 04:36:27;;;;;;;30.63;18.10;;;;;;;7.57;100.00;100555.25;5039545;28;20072;-52
2022/04/28 04:39:13;;;;;;;26.75;14.45;;;;;;;8.17;100.00;100560.31;5023530;28;20041;-52
2022/04/28 04:41:59;;;;;;;19.00;11.93;;;;;;;8.82;100.00;100561.78;5024881;28;20042;-52
2022/04/28 04:44:44;;;;;;;17.88;11.02;;;;;;;9.26;100.00;100560.63;5037790;28;20045;-52
2022/04/28 04:47:33;;;;;;;18.08;11.57;;;;;;;9.76;100.00;100564.53;5038383;28;20100;-52
2022/04/28 04:50:27;;;;;;;17.33;10.55;;;;;;;10.42;100.00;100562.97;5023291;28;20045;-53
2022/04/28 04:53:24;;;;;;;13.35;9.82;;;;;;;11.07;100.00;100552.47;5029691;28;20053;-52
2022/04/28 04:56:09;;;;;;;13.45;9.50;;;;;;;11.66;95.44;100556.72;5032946;28;20069;-52
2022/04/28 04:58:53;;;;;;;10.32;7.63;;;;;;;11.98;88.48;100562.31;5023995;28;20049;-53
2022/04/28 05:01:38;;;;;;;10.68;6.80;;;;;;;12.40;89.52;100557.97;5032506;28;20052;-53
2022/04/28 05:04:42;;;;;;;6.95;5.68;;;;;;;12.93;83.34;100571.69;5030269;28;20527;-53
2022/04/28 05:07:50;;;;;;;8.93;5.68;;;;;;;13.35;78.76;100563.75;5022176;28;20318;-53
2022/04/28 05:10:35;;;;;;;7.65;6.03;;;;;;;13.54;72.78;100554.47;5022082;28;20064;-53
2022/04/28 05:13:20;;;;;;;9.38;6.68;;;;;;;13.51;74.46;100559.81;5021997;28;20447;-53
2022/04/28 05:16:10;;;;;;;15.15;6.60;;;;;;;13.76;73.06;100569.75;5029691;28;20745;-53
2022/04/28 05:19:07;;;;;;;11.38;7.65;;;;;;;14.18;71.42;100558.94;5021012;28;20076;-54
2022/04/28 05:22:07;;;;;;;11.80;6.95;;;;;;;14.86;66.03;100569.28;5025812;28;20042;-53
2022/04/28 05:24:58;;;;;;;12.68;8.98;;;;;;;14.72;69.52;100563.53;5023553;28;20617;-54
2022/04/28 05:28:02;;;;;;;13.82;8.95;;;;;;;15.21;67.40;100559.41;5031759;28;20621;-53
2022/04/28 05:31:05;;;;;;;12.73;8.75;;;;;;;15.88;66.82;100575.63;5030161;28;20041;-53
2022/04/28 05:34:08;;;;;;;;;;;;;;;15.89;63.66;100568.56;5032730;28;20183;-53
2022/04/28 05:37:04;;;;;;;18.60;8.35;;;;;;;16.43;61.98;100577.22;5043647;28;20437;-53
2022/04/28 05:39:49;;;;;;;12.40;8.00;;;;;;;16.97;62.19;100579.56;5027394;28;20509;-53
2022/04/28 05:45:41;;;;;;;13.55;8.52;;;;;;;17.83;57.93;100575.22;5022558;28;20053;-53
2022/04/28 05:48:31;;;;;;;12.00;7.28;;;;;;;17.60;57.50;100579.66;5043331;28;20052;-53
2022/04/28 05:51:16;;;;;;;10.80;6.80;;;;;;;18.06;55.62;100579.50;5040348;28;20042;-53
2022/04/28 05:54:01;;;;;;;8.50;6.53;;;;;;;17.78;53.12;100571.88;5020883;28;20072;-55
2022/04/28 05:56:47;;;;;;;9.80;6.55;;;;;;;17.57;51.17;100569.19;5023973;28;20041;-54
2022/04/28 05:59:31;;;;;;;7.95;5.93;;;;;;;18.13;52.86;100573.88;5029127;28;20061;-53
2022/04/28 06:02:39;;;;;;;8.70;6.20;;;;;;;18.13;50.55;100584.47;5028204;28;20046;-54
2022/04/28 06:05:28;;;;;;;7.10;5.20;;;;;;;18.27;48.80;100577.72;5029068;28;20111;-53
2022/04/28 06:08:13;;;;;;;7.80;5.40;;;;;;;18.90;50.69;100583.66;5024088;28;20144;-54
2022/04/28 06:10:58;;;;;;;8.82;6.30;;;;;;;18.75;48.32;100581.72;5021443;28;20050;-54
2022/04/28 06:13:45;;;;;;;6.97;4.85;;;;;;;18.72;47.24;100590.72;5027922;28;20061;-54
2022/04/28 06:16:49;;;;;;;6.50;4.80;;;;;;;20.14;46.91;100584.63;5032359;28;20053;-54
2022/04/28 06:19:38;;;;;;;5.65;4.57;;;;;;;19.83;43.28;100578.25;5028294;28;20057;-53
2022/04/28 06:22:23;;;;;;;9.63;4.70;;;;;;;19.41;43.76;100581.22;5033406;28;20037;-54
2022/04/28 06:25:08;;;;;;;5.15;3.78;;;;;;;19.63;43.35;100581.88;5023396;28;20053;-54
2022/04/28 06:27:53;;;;;;;9.13;4.95;;;;;;;19.38;44.05;100590.22;5024100;28;20049;-55
2022/04/28 06:30:38;;;;;;;7.93;4.18;;;;;;;19.59;43.13;100589.13;5022905;28;20402;-54
2022/04/28 06:33:43;;;;;;;6.75;4.15;;;;;;;19.72;43.46;100585.88;5026699;28;20046;-54
2022/04/28 06:36:40;;;;;;;6.38;3.88;;;;;;;19.66;42.54;100589.75;5026500;28;20049;-53
2022/04/28 06:39:25;;;;;;;9.20;4.32;;;;;;;19.17;42.28;100586.78;5038774;28;20064;-54
2022/04/28 06:42:10;;;;;;;9.15;4.45;;;;;;;18.86;42.57;100584.75;5025927;28;20037;-53
2022/04/28 06:45:13;;;;;;;5.82;4.65;;;;;;;19.23;44.06;100594.44;5025777;28;20053;-53
2022/04/28 06:48:16;;;;;;;;;;;;;;;19.30;44.59;100597.66;5026623;28;20057;-53
2022/04/28 06:51:21;;;;;;;7.05;4.85;;;;;;;19.58;41.90;100595.38;5025445;28;19979;-53
2022/04/28 06:54:24;;;;;;;6.00;4.10;;;;;;;19.89;43.19;100595.66;5037748;28;20077;-54
2022/04/28 06:57:09;;;;;;;7.18;4.28;;;;;;;20.31;41.35;100596.09;5024848;28;20045;-54
2022/04/28 06:59:56;;;;;;;9.50;3.97;;;;;;;20.83;41.80;100595.13;5028516;28;20508;-54
2022/04/28 07:02:41;;;;;;;6.53;3.47;;;;;;;20.40;40.58;100602.72;5022277;28;20103;-54
2022/04/28 07:05:25;;;;;;;11.60;4.72;;;;;;;19.71;39.79;100610.75;5024606;28;20139;-55
2022/04/28 07:08:10;;;;;;;5.43;4.40;;;;;;;19.80;41.56;100604.97;5024782;28;20053;-55
2022/04/28 07:11:02;;;;;;;7.45;4.13;;;;;;;20.14;41.75;100605.88;5021955;28;20637;-54
2022/04/28 07:13:46;;;;;;;8.32;4.05;;;;;;;20.35;40.97;100604.78;5037967;28;20054;-54
2022/04/28 07:16:50;;;;;;;4.85;4.00;;;;;;;19.62;42.62;100617.34;5025021;28;20048;-53
2022/04/28 07:19:40;;;;;;;7.40;4.57;;;;;;;19.77;42.10;100610.44;5024780;28;20056;-54
2022/04/28 07:22:25;;;;;;;8.93;4.00;;;;;;;20.17;42.12;100619.88;5039481;28;20057;-53
2022/04/28 07:25:09;;;;;;;9.88;6.93;;;;;;;20.36;42.47;100610.94;5023538;28;20068;-54
2022/04/28 07:27:56;;;;;;;7.78;5.22;;;;;;;20.23;42.49;100616.03;5031007;28;20108;-53
2022/04/28 07:31:04;;;;;;;14.25;8.38;;;;;;;20.58;42.05;100619.53;5016560;28;20465;-53
2022/04/28 07:34:12;;;;;;;10.52;4.60;;;;;;;20.53;41.35;100611.78;5013029;28;20183;-54
2022/04/28 07:37:15;;;;;;;7.20;4.82;;;;;;;20.65;41.12;100617.41;5027203;28;20057;-53
2022/04/28 07:40:19;;;;;;;;;;;;;;;20.22;41.04;100620.50;5037099;28;20037;-53
2022/04/28 07:43:11;;;;;;;10.73;4.55;;;;;;;20.21;41.98;100626.75;5040177;28;19925;-53
2022/04/28 07:45:57;;;;;;;6.07;4.50;;;;;;;20.33;42.76;100614.63;5033734;28;20044;-53
2022/04/28 07:48:41;;;;;;;5.90;4.45;;;;;;;19.99;41.42;100613.72;5028929;28;20045;-53
2022/04/28 07:51:25;;;;;;;8.07;4.60;;;;;;;20.01;42.48;100625.13;5034195;28;20119;-53
2022/04/28 07:54:10;;;;;;;7.78;6.47;;;;;;;20.73;42.89;100620.50;5031039;28;20068;-54
2022/04/28 07:56:55;;;;;;;14.13;10.82;;;;;;;20.19;42.80;100622.47;5049187;28;20554;-53
2022/04/28 07:59:41;;;;;;;21.15;18.05;;;;;;;19.71;44.10;100621.38;5037114;28;20057;-54
2022/04/28 08:02:37;;;;;;;13.55;7.97;;;;;;;19.57;42.84;100625.56;5034785;28;20052;-53
2022/04/28 08:05:21;;;;;;;15.15;11.40;;;;;;;19.66;43.34;100631.38;5027394;28;20064;-53
2022/04/28 08:08:07;;;;;;;12.77;8.60;;;;;;;19.59;43.51;100622.81;5042107;28;20057;-53
2022/04/28 08:10:52;;;;;;;12.25;8.82;;;;;;;20.01;43.50;100633.09;5048815;28;20048;-53
2022/04/28 08:13:38;;;;;;;8.68;6.10;;;;;;;19.52;43.09;100635.53;5032950;28;20041;-53
2022/04/28 08:16:36;;;;;;;10.32;5.38;;;;;;;19.91;43.34;100634.50;5034481;28;20517;-54
2022/04/28 08:19:21;;;;;;;7.53;5.88;;;;;;;19.34;43.45;100639.97;5025240;28;20489;-53
2022/04/28 08:22:16;;;;;;;13.38;9.45;;;;;;;20.01;44.34;100637.56;5039435;28;20045;-52
2022/04/28 08:25:02;;;;;;;8.48;5.82;;;;;;;19.30;44.06;100637.50;5031036;28;20080;-53
2022/04/28 08:27:47;;;;;;;6.80;5.45;;;;;;;19.32;43.75;100640.97;5032241;28;20069;-53
2022/04/28 08:30:31;;;;;;;7.05;5.43;;;;;;;19.14;43.78;100646.22;5028682;28;20065;-52
2022/04/28 08:33:17;;;;;;;7.13;5.45;;;;;;;19.67;43.70;100644.59;5026286;28;20049;-53
2022/04/28 08:36:03;;;;;;;6.93;5.65;;;;;;;19.81;43.37;100643.91;5025407;28;20730;-52
2022/04/28 08:38:48;;;;;;;10.25;6.22;;;;;;;19.82;44.33;100642.94;5041516;28;20056;-53
2022/04/28 08:41:35;;;;;;;17.40;7.20;;;;;;;19.25;44.52;100647.50;5027655;28;20060;-53
2022/04/28 08:44:38;;;;;;;9.57;6.13;;;;;;;18.87;47.44;100640.41;5029307;28;20107;-53
2022/04/28 08:47:35;;;;;;;10.35;6.03;;;;;;;19.11;43.99;100634.91;5028258;28;20033;-53
2022/04/28 08:50:42;;;;;;;11.27;6.68;;;;;;;18.56;45.60;100646.22;5025093;28;20053;-53
2022/04/28 08:53:30;;;;;;;10.70;6.22;;;;;;;19.24;46.46;100649.31;5040377;28;20045;-53
2022/04/28 08:56:16;;;;;;;9.98;6.53;;;;;;;18.99;48.01;100652.25;5029419;28;20582;-53
2022/04/28 08:59:00;;;;;;;10.05;6.53;;;;;;;19.19;46.18;100646.00;5040312;28;20061;-53
2022/04/28 09:01:45;;;;;;;9.13;6.53;;;;;;;19.26;46.94;100649.22;5023755;28;20045;-52
2022/04/28 09:04:59;;;;;;;11.10;7.15;;;;;;;19.06;47.49;100645.72;5022168;28;20361;-51
2022/04/28 09:08:17;;;;;;;11.27;7.00;;;;;;;18.93;47.08;100647.22;5020483;28;20053;-53
2022/04/28 09:11:29;;;;;;;9.60;6.88;;;;;;;19.00;47.70;100637.19;5007372;28;20073;-52
2022/04/28 09:14:32;;;;;;;9.25;6.93;;;;;;;19.11;48.76;100643.72;5024099;28;20053;-52
2022/04/28 09:17:17;;;;;;;12.77;7.25;;;;;;;18.82;47.36;100657.50;5038558;28;20046;-52
2022/04/28 09:20:02;;;;;;;8.35;7.43;;;;;;;18.69;45.74;100658.00;5025027;28;20052;-52
2022/04/28 09:22:54;;;;;;;12.32;7.25;;;;;;;18.76;47.53;100652.47;5022156;28;20149;-52
2022/04/28 09:25:45;;;;;;;11.93;7.00;;;;;;;19.05;48.01;100638.69;5031609;28;20057;-52
2022/04/28 09:28:31;;;;;;;12.77;7.75;;;;;;;19.50;47.41;100647.16;5037965;28;20148;-52
2022/04/28 09:31:17;;;;;;;8.35;7.25;;;;;;;19.27;45.08;100651.81;5024092;28;20038;-52
2022/04/28 09:34:23;;;;;;;12.95;7.82;;;;;;;18.68;46.39;100655.41;5018059;28;20057;-52
2022/04/28 09:37:40;;;;;;;8.70;7.25;;;;;;;18.98;48.37;100654.97;5017211;28;20514;-53
2022/04/28 09:43:33;;;;;;;11.68;7.93;;;;;;;19.26;47.14;100644.75;5037634;28;20058;-52
2022/04/28 09:46:23;;;;;;;10.43;6.78;;;;;;;19.52;46.29;100647.97;5044716;28;20722;-53
2022/04/28 09:49:11;;;;;;;9.27;7.60;;;;;;;19.45;47.39;100642.09;5038875;28;20061;-54
2022/04/28 09:52:20;;;;;;;9.88;7.60;;;;;;;19.59;46.69;100641.41;5035628;28;20053;-54
2022/04/28 09:55:44;;;;;;;9.88;7.00;;;;;;;19.58;47.54;100656.50;5033934;28;20049;-52
2022/04/28 09:58:45;;;;;;;15.10;10.13;;;;;;;19.80;47.31;100642.19;5042764;28;20087;-53
2022/04/28 10:01:30;;;;;;;11.20;8.63;;;;;;;19.32;47.78;100641.81;5034280;28;20045;-53
2022/04/28 10:04:16;;;;;;;14.40;7.90;;;;;;;19.67;46.07;100649.06;5028539;28;20065;-52
2022/04/28 10:07:20;;;;;;;13.75;8.80;;;;;;;19.58;44.93;100639.69;5034845;28;20057;-53
2022/04/28 10:10:05;;;;;;;11.10;7.80;;;;;;;19.70;45.27;100641.78;5035539;28;20057;-52
2022/04/28 10:12:50;;;;;;;11.48;7.28;;;;;;;19.08;43.59;100648.31;5049843;28;20053;-52
2022/04/28 10:16:01;;;;;;;10.45;7.70;;;;;;;19.61;46.23;100647.50;5034492;28;20056;-53
2022/04/28 10:19:08;;;;;;;8.23;7.28;;;;;;;19.82;44.78;100641.19;5035694;28;20114;-53
2022/04/28 10:22:00;;;;;;;11.10;7.40;;;;;;;19.52;46.01;100659.44;5029290;28;20041;-52
2022/04/28 10:34:17;;;;;;;14.50;8.10;;;;;;;19.54;44.97;100639.00;5026011;28;20047;-53
2022/04/28 10:37:04;;;;;;;8.52;7.10;;;;;;;19.82;42.78;100640.28;5032656;28;20057;-53
2022/04/28 10:39:55;;;;;;;8.75;6.38;;;;;;;20.05;44.17;100642.66;5034218;28;21269;-52
2022/04/28 10:42:39;;;;;;;11.32;6.88;;;;;;;20.27;43.45;100652.19;5033889;28;20049;-52
2022/04/28 10:45:28;;;;;;;10.52;6.40;;;;;;;20.19;42.66;100649.06;5026610;28;20033;-52
2022/04/28 10:48:25;;;;;;;9.73;5.90;;;;;;;20.07;43.27;100646.09;5024428;28;20057;-53
2022/04/28 10:51:15;;;;;;;9.93;5.55;;;;;;;19.91;42.94;100641.63;5028832;28;20057;-52
2022/04/28 10:54:05;;;;;;;6.43;5.63;;;;;;;20.00;41.93;100634.06;5024327;28;20100;-53
2022/04/28 10:56:56;;;;;;;6.13;5.18;;;;;;;19.85;40.75;100645.44;5037520;28;20469;-52
2022/04/28 10:59:47;;;;;;;9.52;5.55;;;;;;;19.69;40.97;100641.84;5025410;28;20053;-53
2022/04/28 11:02:34;;;;;;;7.63;5.25;;;;;;;20.00;42.75;100644.69;5023970;28;20041;-53
2022/04/28 11:05:35;;;;;;;6.47;4.85;;;;;;;20.19;42.77;100641.94;5025998;28;20057;-52
2022/04/28 11:08:24;;;;;;;9.93;5.55;;;;;;;20.39;41.66;100635.59;5025865;28;20053;-52
2022/04/28 11:11:12;;;;;;;10.80;5.65;;;;;;;20.13;40.77;100636.94;5025825;28;20056;-52
2022/04/28 11:13:58;;;;;;;7.35;4.65;;;;;;;20.02;41.52;100642.81;5026168;28;20435;-52
2022/04/28 11:16:43;;;;;;;9.35;4.78;;;;;;;20.35;41.31;100644.66;5025715;28;20050;-52
2022/04/28 11:19:28;;;;;;;13.50;5.80;;;;;;;20.48;40.88;100650.22;5025149;28;20049;-52
2022/04/28 11:22:13;;;;;;;11.38;5.45;;;;;;;20.03;40.33;100644.53;5025967;28;20100;-52
2022/04/28 11:24:57;;;;;;;6.95;5.22;;;;;;;20.00;40.66;100642.03;5029244;28;20056;-52
2022/04/28 11:27:56;;;;;;;9.90;6.25;;;;;;;20.47;40.98;100646.69;5038358;28;20053;-52
2022/04/28 11:30:42;;;;;;;7.45;5.50;;;;;;;20.38;40.91;100649.84;5024811;28;20053;-52
2022/04/28 11:33:27;;;;;;;9.18;4.55;;;;;;;20.65;38.37;100646.69;5037426;28;20049;-52
2022/04/28 11:36:27;;;;;;;6.38;4.30;;;;;;;20.68;37.88;100651.84;5027553;28;20041;-53
2022/04/28 11:39:11;;;;;;;6.07;4.90;;;;;;;20.06;39.05;100654.16;5033930;28;20057;-52
2022/04/28 11:41:58;;;;;;;7.07;4.82;;;;;;;20.29;38.83;100647.66;5028684;28;20045;-52
2022/04/28 11:44:46;;;;;;;7.43;6.43;;;;;;;20.08;38.63;100644.28;5024506;28;20049;-53
2022/04/28 11:47:30;;;;;;;10.90;9.68;;;;;;;20.49;39.12;100646.59;5032694;28;20128;-52
2022/04/28 11:50:23;;;;;;;8.85;5.15;;;;;;;20.76;37.78;100642.47;5025057;28;20057;-52
2022/04/28 11:53:12;;;;;;;12.15;7.90;;;;;;;20.56;38.29;100645.34;5030940;28;20045;-54
2022/04/28 11:55:56;;;;;;;13.20;8.73;;;;;;;20.40;39.29;100647.06;5028095;28;20057;-52
2022/04/28 11:58:40;;;;;;;13.25;6.15;;;;;;;19.44;39.16;100652.81;5029483;28;20053;-52
2022/04/28 12:01:29;;;;;;;7.25;5.10;;;;;;;19.05;40.35;100659.06;5028747;28;20057;-52
2022/04/28 12:04:16;;;;;;;7.60;4.63;;;;;;;18.76;41.38;100653.31;5031833;28;20037;-53
2022/04/28 12:07:01;;;;;;;7.55;4.82;;;;;;;18.95;40.20;100653.34;5028198;28;20060;-52
2022/04/28 12:15:53;;;;;;;7.97;5.63;;;;;;;19.77;39.49;100645.00;5030712;28;20057;-52
2022/04/28 12:21:42;;;;;;;11.98;7.03;;;;;;;19.89;38.62;100656.78;5031354;28;20049;-53
2022/04/28 12:24:32;;;;;;;6.90;5.18;;;;;;;20.17;39.42;100654.44;5031536;28;20405;-52
2022/04/28 12:27:17;;;;;;;8.18;4.93;;;;;;;20.16;38.92;100650.09;5033685;28;20111;-52
2022/04/28 12:30:08;;;;;;;6.80;5.60;;;;;;;19.63;39.26;100650.97;5032548;28;20044;-53
2022/04/28 12:32:54;;;;;;;8.35;5.40;;;;;;;19.25;40.31;100655.47;5029707;28;20045;-52
2022/04/28 12:35:38;;;;;;;9.25;4.80;;;;;;;19.29;40.75;100654.38;5028802;28;20046;-52
2022/04/28 12:38:24;;;;;;;6.97;4.60;;;;;;;19.69;40.00;100644.50;5029062;28;20485;-52
2022/04/28 12:41:15;;;;;;;8.80;5.03;;;;;;;19.79;39.77;100637.78;5025757;28;20057;-53
2022/04/28 12:44:06;;;;;;;7.05;4.80;;;;;;;20.28;39.75;100638.81;5028220;28;20057;-52
2022/04/28 12:46:55;;;;;;;7.88;4.32;;;;;;;20.38;39.31;100635.69;5027023;28;21463;-52
2022/04/28 12:49:45;;;;;;;6.13;4.00;;;;;;;19.94;38.02;100631.69;5035007;28;20049;-52
2022/04/28 12:52:31;;;;;;;5.32;3.80;;;;;;;19.75;35.97;100626.44;5025755;28;20049;-53
2022/04/28 12:55:19;;;;;;;4.13;3.25;;;;;;;19.73;37.20;100630.16;5024135;28;20057;-53
2022/04/28 12:58:03;;;;;;;6.60;4.45;;;;;;;19.93;39.80;100631.78;5022917;28;20045;-52
2022/04/28 13:00:51;;;;;;;3.92;3.45;;;;;;;19.59;38.41;100628.97;5024723;28;20397;-52
2022/04/28 13:03:36;;;;;;;7.03;4.20;;;;;;;19.10;38.78;100634.00;5025585;28;20057;-53
2022/04/28 13:06:21;;;;;;;6.25;3.75;;;;;;;18.96;39.24;100633.81;5030167;28;20064;-53
2022/04/28 13:09:07;;;;;;;5.55;3.40;;;;;;;18.88;38.63;100630.63;5029634;28;20061;-53
2022/04/28 13:11:51;;;;;;;5.40;3.22;;;;;;;18.99;38.67;100635.47;5029990;28;20065;-53
2022/04/28 13:14:36;;;;;;;6.80;2.97;;;;;;;18.75;38.03;100638.34;5021920;28;20518;-52
2022/04/28 13:17:20;;;;;;;7.40;4.70;;;;;;;18.52;39.60;100636.66;5021027;28;20065;-52
2022/04/28 13:20:06;;;;;;;6.18;3.53;;;;;;;18.56;38.48;100626.81;5020542;28;20049;-52
2022/04/28 13:22:50;;;;;;;7.65;3.85;;;;;;;18.53;39.20;100624.28;5021270;28;20515;-52
2022/04/28 13:25:35;;;;;;;8.77;3.97;;;;;;;18.33;38.75;100625.16;5023769;28;20057;-52
2022/04/28 13:28:19;;;;;;;4.68;4.15;;;;;;;18.20;39.37;100638.13;5030802;28;20060;-52
2022/04/28 13:31:04;;;;;;;7.03;4.75;;;;;;;18.33;38.87;100630.44;5032610;28;20057;-52
2022/04/28 13:33:50;;;;;;;7.28;4.55;;;;;;;18.20;39.40;100631.00;5025661;28;20128;-52
2022/04/28 13:36:35;;;;;;;5.63;4.72;;;;;;;18.19;39.48;100626.63;5024640;28;20054;-52
2022/04/28 13:39:20;;;;;;;4.18;3.58;;;;;;;18.39;39.04;100633.72;5024113;28;20680;-53
2022/04/28 13:42:04;;;;;;;6.43;3.72;;;;;;;18.03;38.36;100619.41;5030234;28;20052;-52
2022/04/28 13:44:49;;;;;;;5.90;3.83;;;;;;;18.10;38.29;100621.75;5034573;28;20053;-52